Blountsville, Indiana
Current Conditions -  °F | °C
As of 2:53 AM on Wednesday 22 Oct 2014 (Local Time) from KMIE Reporting Station
Clear Clear  
Wind Chill: 38°   Ceiling: Unl
Heat Index: 41°   Visibility: 10mi
Dew Point: 35°   Wind: 5mph
Humidity: 79%   Direction: 20°NNE
Pressure: 30.22"   Gusts: NA
Location:  40.0508°N, 85.2059°W
Report Text: KMIE 220653Z AUTO 02004KT 10SM CLR 05/02 A3022 RMK AO2 SLP233 T00500017
Loading
Personal Weather Stations






























Interactive Weather Map
Tropical Storm Tracking
New forecast layout! Learn more

10-Day Weather Forecast

Advertisements
Track Severe Weather on mobile